Airfield :
LOGIN :

Register | Disclaimer

   EN    FR    IT 

 










Legend :    VFR   Marginal VFR   IFR   Intensive IFR   Very Intensive IFR
Visi :
Ceiling :
>= 8 km
>= 3000ft
5 to 8 km
1000 to 3000 ft
1500m to 5 km
500 to 1000 ft
800 to 1500m
200 to 500 ft
< 800m
< 200 ft
Symbols :   Thunderstorms  Fog  Heavy snow  Heavy precipitations  Wind > 20 kt
SIGMETs :     Misc.  Thunderstorms  Icing  Turbulence  Mountain Waves  Volcanic Ashes






- Airport Elevation : 32 ft
- IATA code : LKZ


EGUL - RAF Lakenheath

CURRENT METAR :
  • 180156Z AUTO 34006KT 9999 -DZ OVC006 14/14 A2995 RMK AO2 DZE24DZB24E24DZB54 OVC V BKN SLP145 P0001 T01440142 $

EXPIRED METARs :
  • 180134Z AUTO 34004KT 9999 BKN006 BKN028 14/14 A2996 RMK AO2 DZE24DZB24E24 CIG 006V008 SLP149 $
  • 180124Z AUTO 35005KT 9999 BKN008 BKN028 15/14 A2996 RMK AO2 DZE24DZB24 SLP149 $
  • 180111Z AUTO 33005KT 9999 -DZ BKN008 15/14 A2996 RMK AO2 BKN V OVC SLP149 $
  • 180056Z AUTO 34005KT 9999 -DZ OVC007 15/14 A2996 RMK AO2 DZB32 SLP149 P0000 T01460144 $
  • 180047Z AUTO 35004KT 9999 -DZ BR OVC007 15/14 A2996 RMK AO2 DZB32 CIG 007V011 OVC V FEW SLP149 $
  • 180032Z AUTO 01004KT 9999 -DZ OVC010 15/14 A2996 RMK AO2 DZB32 OVC V BKN CIG 006 RWY24 SLP149 $
  • 180001Z AUTO 35005KT 9999 BKN006 BKN043 15/14 A2995 RMK AO2 CIG 006V043 BKN006 V SCT SLP145 $
  • 172356Z AUTO 36006KT 9999 BKN007 BKN043 15/15 A2995 RMK AO2 DZE2258DZB2258E2258 CIG 007V043 SLP145 P0000 60011 T01470145 10175 20147 401950147 50003 $
  • 172332Z AUTO 36005KT 9999 BKN008 BKN044 15/15 A2995 RMK AO2 DZE2258DZB2258E2258 CIG 006V008 CIG 007 RWY24 SLP145 $
  • 172322Z AUTO 36006KT 9999 BKN007 15/15 A2996 RMK AO2 DZE2258DZB2258E2258 CIG 007V048 SLP149 $
  • 172307Z AUTO 35006KT 9999 SCT005 BKN037 15/15 A2996 RMK AO2 DZE2258DZB2258E2258 SLP149 $

TAF TAF EGUL
Valid from the 17 at 21:00 until the 19 at 02:00 UTC


172100Z 1721/1902 34010KT 9000 -SHRA BKN040 QNH2982INS
BECMG 1800/1801 01012KT 6000 -SHRA BR SCT015 OVC030 QNH2998INS
BECMG 1802/1803 02010G15KT 3200 -SHRA BR BKN007 OVC010 QNH2998INS
BECMG 1806/1807 03015G20KT 5000 -SHRA BR OVC007 QNH2997INS
BECMG 1810/1811 04015G25KT 5000 -SHRA BR OVC007 510003 QNH2989INS
BECMG 1814/1815 33020G30KT 6000 -SHRA BR OVC007 510003 QNH2985INS
BECMG 1821/1822 35015G25KT 6000 -SHRA BR OVC010 510003 QNH2984INS
BECMG 1901/1902 35015G20KT 8000 BR VCSH BKN010 QNH2991INS TX16/1801Z TN14/1820Z LAST NO AMDS AFT 1721 NEXT 1805



MET'MAP, your aeronautical weather chart ! - Copyright ORBIFLY December 2007 - Disclaimer

ORBIFLY MET'MAP TEAM :

Programming & Development : Alexandra Zaïnal
Concept & original design : Baudouin d'Aumeries
Assistance for programming : Marc-Olivier Méhu
Technical & hardware support : Manuel Goepfert

Contact : metmap@orbifly.com




SOURCES & CREDITS :

   NOAA